createdAt,value
2023-05-07T00:00:44.755Z,13.50
2023-05-07T00:01:44.706Z,13.70
2023-05-07T00:02:44.712Z,13.40
2023-05-07T00:03:44.818Z,12.80
2023-05-07T00:04:44.629Z,12.10
2023-05-07T00:05:44.554Z,12.30
2023-05-07T00:06:44.512Z,11.50
2023-05-07T00:07:44.437Z,12.90
2023-05-07T00:08:44.403Z,13.00
2023-05-07T00:09:44.428Z,13.10
2023-05-07T00:10:44.348Z,12.80
2023-05-07T00:11:44.359Z,13.70
2023-05-07T00:12:44.333Z,13.10
2023-05-07T00:13:44.180Z,12.30
2023-05-07T00:14:44.153Z,12.80
2023-05-07T00:15:44.155Z,12.00
2023-05-07T00:16:44.133Z,11.50
2023-05-07T00:17:44.078Z,11.50
2023-05-07T00:18:43.999Z,11.70
2023-05-07T00:19:43.954Z,12.40
2023-05-07T00:20:43.962Z,11.80
2023-05-07T00:21:43.849Z,10.90
2023-05-07T00:22:43.856Z,10.60
2023-05-07T00:23:43.792Z,12.90
2023-05-07T00:24:43.757Z,13.30
2023-05-07T00:25:43.776Z,13.60
2023-05-07T00:26:43.688Z,12.10
2023-05-07T00:27:43.725Z,11.90
2023-05-07T00:28:43.632Z,11.70
2023-05-07T00:29:43.583Z,12.40
2023-05-07T00:30:43.589Z,12.20
2023-05-07T00:31:43.566Z,11.20
2023-05-07T00:32:43.551Z,12.50
2023-05-07T00:33:43.433Z,11.70
2023-05-07T00:34:43.433Z,12.70
2023-05-07T00:35:43.425Z,13.20
2023-05-07T00:36:43.327Z,14.00
2023-05-07T00:37:43.290Z,12.60
2023-05-07T00:38:43.256Z,12.70
2023-05-07T00:39:43.226Z,12.80
2023-05-07T00:40:43.307Z,13.20
2023-05-07T00:41:43.145Z,12.50
2023-05-07T00:42:43.099Z,12.10
2023-05-07T00:43:43.087Z,13.50
2023-05-07T00:44:43.021Z,13.30
2023-05-07T00:45:42.997Z,12.60
2023-05-07T00:46:43.025Z,12.50
2023-05-07T00:47:43.036Z,12.30
2023-05-07T00:48:42.868Z,13.20
2023-05-07T00:49:42.839Z,12.50
2023-05-07T00:50:42.817Z,12.70
2023-05-07T00:51:42.757Z,13.00
2023-05-07T00:52:42.788Z,13.30
2023-05-07T00:53:42.697Z,14.30
2023-05-07T00:54:42.648Z,14.10
2023-05-07T00:55:42.683Z,14.40
2023-05-07T00:56:42.590Z,13.60
2023-05-07T00:57:42.550Z,13.70
2023-05-07T00:58:42.626Z,13.70
2023-05-07T00:59:42.692Z,13.90
2023-05-07T01:00:42.449Z,14.20
2023-05-07T01:01:42.469Z,13.80
2023-05-07T01:02:42.446Z,13.80
2023-05-07T01:03:42.522Z,13.60
2023-05-07T01:04:42.318Z,14.20
2023-05-07T01:05:42.326Z,13.90
2023-05-07T01:06:42.264Z,14.30
2023-05-07T01:07:42.212Z,14.20
2023-05-07T01:08:42.302Z,14.40
2023-05-07T01:09:42.153Z,13.20
2023-05-07T01:10:42.088Z,14.30
2023-05-07T01:11:42.074Z,14.10
2023-05-07T01:12:42.074Z,14.70
2023-05-07T01:13:42.012Z,14.60
2023-05-07T01:14:42.034Z,14.00
2023-05-07T01:15:42.021Z,14.50
2023-05-07T01:16:41.952Z,14.20
2023-05-07T01:17:41.946Z,13.80
2023-05-07T01:18:41.805Z,14.00
2023-05-07T01:19:41.834Z,12.40
2023-05-07T01:20:41.762Z,12.90
2023-05-07T01:21:41.711Z,13.30
2023-05-07T01:22:41.699Z,13.90
2023-05-07T01:23:41.679Z,14.10
2023-05-07T01:24:41.672Z,14.70
2023-05-07T01:25:41.568Z,15.10
2023-05-07T01:26:41.562Z,15.10
2023-05-07T01:27:41.487Z,15.60
2023-05-07T01:28:41.540Z,16.40
2023-05-07T01:29:41.488Z,15.60
2023-05-07T01:30:41.390Z,14.50
2023-05-07T01:31:41.445Z,15.00
2023-05-07T01:32:41.367Z,15.40
2023-05-07T01:33:41.295Z,16.20
2023-05-07T01:34:41.314Z,15.90
2023-05-07T01:35:41.214Z,16.50
2023-05-07T01:36:41.193Z,15.70
2023-05-07T01:37:41.192Z,15.90
2023-05-07T01:38:41.147Z,14.90
2023-05-07T01:39:41.155Z,15.10
2023-05-07T01:40:41.054Z,15.80
2023-05-07T01:41:41.042Z,15.60
2023-05-07T01:42:40.968Z,15.20
2023-05-07T01:43:40.944Z,15.60
2023-05-07T01:44:41.017Z,17.30
2023-05-07T01:45:40.877Z,17.20
2023-05-07T01:46:40.904Z,16.60
2023-05-07T01:47:40.985Z,16.10
2023-05-07T01:48:40.809Z,16.40
2023-05-07T01:49:40.839Z,16.00
2023-05-07T01:50:40.730Z,15.20
2023-05-07T01:51:40.722Z,17.70
2023-05-07T01:52:40.648Z,17.50
2023-05-07T01:53:40.635Z,16.50
2023-05-07T01:54:40.606Z,17.70
2023-05-07T01:55:40.617Z,16.30
2023-05-07T01:56:40.530Z,16.70
2023-05-07T01:57:40.515Z,16.60
2023-05-07T01:58:40.482Z,18.80
2023-05-07T01:59:40.466Z,17.90
2023-05-07T02:00:40.493Z,18.40
2023-05-07T02:01:40.403Z,17.80
2023-05-07T02:02:40.469Z,18.90
2023-05-07T02:03:40.482Z,20.00
2023-05-07T02:04:40.311Z,19.40
2023-05-07T02:05:40.321Z,20.50
2023-05-07T02:06:40.251Z,19.00
2023-05-07T02:07:40.198Z,19.00
2023-05-07T02:08:40.178Z,19.70
2023-05-07T02:09:40.160Z,20.00
2023-05-07T02:10:40.221Z,21.20
2023-05-07T02:11:40.103Z,21.00
2023-05-07T02:12:40.086Z,19.70
2023-05-07T02:13:40.045Z,18.10
2023-05-07T02:14:40.005Z,19.80
2023-05-07T02:15:40.054Z,20.50
2023-05-07T02:16:40.025Z,19.30
2023-05-07T02:17:39.974Z,19.70
2023-05-07T02:18:39.932Z,20.30
2023-05-07T02:19:40.006Z,19.60
2023-05-07T02:20:39.917Z,20.30
2023-05-07T02:21:39.822Z,20.80
2023-05-07T02:22:39.829Z,20.00
2023-05-07T02:23:39.770Z,18.70
2023-05-07T02:24:39.758Z,19.50
2023-05-07T02:25:39.804Z,18.70
2023-05-07T02:26:39.707Z,19.00
2023-05-07T02:27:39.669Z,20.50
2023-05-07T02:28:39.694Z,19.40
2023-05-07T02:29:39.625Z,20.10
2023-05-07T02:30:39.595Z,18.80
2023-05-07T02:31:39.653Z,19.10
2023-05-07T02:32:39.578Z,19.10
2023-05-07T02:33:39.537Z,18.50
2023-05-07T02:34:39.547Z,19.50
2023-05-07T02:35:39.484Z,18.80
2023-05-07T02:36:39.529Z,20.30
2023-05-07T02:37:39.430Z,21.20
2023-05-07T02:38:39.406Z,21.10
2023-05-07T02:39:39.384Z,20.60
2023-05-07T02:40:39.372Z,21.50
2023-05-07T02:41:39.369Z,19.90
2023-05-07T02:42:39.283Z,20.30
2023-05-07T02:43:39.293Z,20.50
2023-05-07T02:44:39.246Z,21.00
2023-05-07T02:45:39.297Z,21.90
2023-05-07T02:46:39.250Z,22.10
2023-05-07T02:47:39.261Z,20.80
2023-05-07T02:48:39.140Z,20.10
2023-05-07T02:49:39.129Z,21.20
2023-05-07T02:50:39.093Z,20.30
2023-05-07T02:51:39.220Z,20.50
2023-05-07T02:52:39.052Z,21.20
2023-05-07T02:53:39.052Z,20.60
2023-05-07T02:54:39.005Z,20.60
2023-05-07T02:55:38.992Z,19.20
2023-05-07T02:56:38.965Z,21.00
2023-05-07T02:57:38.992Z,21.90
2023-05-07T02:58:38.907Z,22.00
2023-05-07T02:59:38.905Z,21.80
2023-05-07T03:00:39.335Z,21.20
2023-05-07T03:01:38.897Z,23.10
2023-05-07T03:02:38.892Z,21.50
2023-05-07T03:03:38.896Z,21.70
2023-05-07T03:04:38.859Z,24.50
2023-05-07T03:05:38.750Z,21.80
2023-05-07T03:06:38.745Z,22.40
2023-05-07T03:07:38.773Z,21.40
2023-05-07T03:08:38.688Z,21.30
2023-05-07T03:09:38.655Z,22.40
2023-05-07T03:10:38.642Z,22.00
2023-05-07T03:11:38.648Z,21.60
2023-05-07T03:12:38.639Z,21.20
2023-05-07T03:13:38.595Z,21.30
2023-05-07T03:14:38.589Z,20.90
2023-05-07T03:15:38.536Z,20.90
2023-05-07T03:16:38.467Z,21.80
2023-05-07T03:17:38.589Z,21.00
2023-05-07T03:18:38.501Z,19.80
2023-05-07T03:19:38.436Z,20.30
2023-05-07T03:20:38.392Z,20.30
2023-05-07T03:21:38.343Z,22.30
2023-05-07T03:22:38.307Z,21.80
2023-05-07T03:23:38.302Z,21.80
2023-05-07T03:24:38.349Z,23.30
2023-05-07T03:25:38.244Z,22.40
2023-05-07T03:26:38.246Z,21.50
2023-05-07T03:27:38.209Z,22.30
2023-05-07T03:28:38.179Z,22.30
2023-05-07T03:29:38.201Z,23.10
2023-05-07T03:30:38.133Z,21.40
2023-05-07T03:31:38.251Z,22.10
2023-05-07T03:32:38.126Z,24.00
2023-05-07T03:33:38.055Z,23.90
2023-05-07T03:34:38.038Z,23.00
2023-05-07T03:35:38.017Z,22.80
2023-05-07T03:36:38.003Z,22.30
2023-05-07T03:37:38.050Z,23.30
2023-05-07T03:38:37.955Z,24.60
2023-05-07T03:39:37.949Z,23.60
2023-05-07T03:40:37.898Z,23.20
2023-05-07T03:41:37.876Z,22.50
2023-05-07T03:42:37.917Z,22.20
2023-05-07T03:43:37.844Z,23.20
2023-05-07T03:44:37.801Z,23.80
2023-05-07T03:45:37.790Z,23.70
2023-05-07T03:46:37.791Z,22.90
2023-05-07T03:47:37.839Z,22.00
2023-05-07T03:48:37.791Z,21.10
2023-05-07T03:49:37.727Z,23.60
2023-05-07T03:50:38.918Z,24.30
2023-05-07T03:51:37.677Z,23.60
2023-05-07T03:52:37.658Z,22.10
2023-05-07T03:53:37.695Z,22.10
2023-05-07T03:54:37.627Z,20.80
2023-05-07T03:55:37.790Z,20.60
2023-05-07T03:56:37.577Z,22.10
2023-05-07T03:57:37.550Z,21.70
2023-05-07T03:58:37.568Z,23.50
2023-05-07T03:59:37.486Z,23.90
2023-05-07T04:00:37.529Z,24.30
2023-05-07T04:01:37.499Z,23.50
2023-05-07T04:02:37.615Z,24.40
2023-05-07T04:03:37.767Z,22.90
2023-05-07T04:04:37.398Z,23.60
2023-05-07T04:05:37.436Z,24.60
2023-05-07T04:06:37.344Z,22.70
2023-05-07T04:07:37.309Z,23.40
2023-05-07T04:08:37.325Z,24.20
2023-05-07T04:09:37.272Z,24.30
2023-05-07T04:10:37.296Z,22.10
2023-05-07T04:11:37.341Z,21.80
2023-05-07T04:12:37.189Z,21.30
2023-05-07T04:13:37.146Z,23.80
2023-05-07T04:14:37.149Z,24.00
2023-05-07T04:15:37.180Z,25.60
2023-05-07T04:16:37.113Z,26.10
2023-05-07T04:17:37.081Z,25.60
2023-05-07T04:18:37.037Z,23.60
2023-05-07T04:19:37.028Z,21.50
2023-05-07T04:20:37.043Z,22.00
2023-05-07T04:21:36.970Z,23.00
2023-05-07T04:22:36.948Z,22.80
2023-05-07T04:23:36.936Z,24.70
2023-05-07T04:24:36.903Z,23.60
2023-05-07T04:25:36.873Z,23.40
2023-05-07T04:26:36.929Z,22.40
2023-05-07T04:27:36.840Z,22.90
2023-05-07T04:28:36.899Z,23.30
2023-05-07T04:29:36.788Z,22.60
2023-05-07T04:30:36.768Z,24.30
2023-05-07T04:31:36.764Z,24.50
2023-05-07T04:32:36.756Z,26.20
2023-05-07T04:33:36.687Z,25.10
2023-05-07T04:34:36.714Z,23.60
2023-05-07T04:35:36.636Z,24.40
2023-05-07T04:36:36.617Z,24.30
2023-05-07T04:37:36.582Z,23.90
2023-05-07T04:38:36.584Z,25.40
2023-05-07T04:39:36.599Z,24.50
2023-05-07T04:40:36.526Z,24.80
2023-05-07T04:41:36.577Z,26.20
2023-05-07T04:42:36.467Z,25.80
2023-05-07T04:43:36.591Z,24.60
2023-05-07T04:44:36.517Z,26.00
2023-05-07T04:45:36.465Z,26.60
2023-05-07T04:46:36.428Z,25.00
2023-05-07T04:47:36.378Z,25.30
2023-05-07T04:48:36.334Z,26.30
2023-05-07T04:49:36.346Z,26.90
2023-05-07T04:50:36.349Z,25.60
2023-05-07T04:51:36.315Z,26.10
2023-05-07T04:52:36.244Z,25.90
2023-05-07T04:53:36.279Z,26.30
2023-05-07T04:54:36.187Z,25.90
2023-05-07T04:55:36.170Z,25.30
2023-05-07T04:56:36.211Z,24.60
2023-05-07T04:57:36.132Z,26.90
2023-05-07T04:58:36.180Z,26.40
2023-05-07T04:59:36.176Z,27.50
2023-05-07T05:00:36.066Z,26.10
2023-05-07T05:01:36.087Z,27.10
2023-05-07T05:02:36.059Z,26.60
2023-05-07T05:03:36.196Z,27.30
2023-05-07T05:04:35.970Z,27.40
2023-05-07T05:05:35.963Z,26.50
2023-05-07T05:06:36.013Z,25.80
2023-05-07T05:07:35.908Z,24.80
2023-05-07T05:08:35.918Z,24.70
2023-05-07T05:09:35.882Z,26.90
2023-05-07T05:10:35.845Z,26.40
2023-05-07T05:11:35.877Z,27.10
2023-05-07T05:12:35.856Z,26.40
2023-05-07T05:13:35.853Z,24.40
2023-05-07T05:14:35.801Z,25.80
2023-05-07T05:15:35.885Z,26.40
2023-05-07T05:16:35.841Z,26.50
2023-05-07T05:17:35.724Z,27.00
2023-05-07T05:18:35.700Z,27.20
2023-05-07T05:19:35.659Z,26.20
2023-05-07T05:20:35.626Z,27.50
2023-05-07T05:21:35.682Z,25.20
2023-05-07T05:22:35.580Z,25.60
2023-05-07T05:23:35.553Z,24.70
2023-05-07T05:24:35.547Z,24.30
2023-05-07T05:25:35.514Z,23.50
2023-05-07T05:26:35.495Z,22.60
2023-05-07T05:27:35.552Z,25.40
2023-05-07T05:28:35.442Z,24.10
2023-05-07T05:29:35.430Z,24.30
2023-05-07T05:30:35.468Z,24.40
2023-05-07T05:31:35.583Z,23.30
2023-05-07T05:32:35.406Z,22.00
2023-05-07T05:33:35.379Z,22.70
2023-05-07T05:34:35.299Z,22.80
2023-05-07T05:35:35.354Z,25.20
2023-05-07T05:36:35.239Z,22.90
2023-05-07T05:37:35.217Z,23.60
2023-05-07T05:38:35.200Z,24.70
2023-05-07T05:39:35.213Z,24.20
2023-05-07T05:40:35.189Z,22.80
2023-05-07T05:41:35.114Z,23.30
2023-05-07T05:42:35.085Z,22.80
2023-05-07T05:43:35.045Z,21.80
2023-05-07T05:44:35.003Z,21.50
2023-05-07T05:45:35.089Z,22.20
2023-05-07T05:46:37.008Z,23.60
2023-05-07T05:47:35.045Z,23.10
2023-05-07T05:48:34.917Z,24.70
2023-05-07T05:49:34.874Z,24.80
2023-05-07T05:50:34.845Z,22.90
2023-05-07T05:51:34.908Z,22.10
2023-05-07T05:52:34.777Z,22.00
2023-05-07T05:53:34.738Z,20.80
2023-05-07T05:54:34.690Z,21.40
2023-05-07T05:55:34.668Z,22.10
2023-05-07T05:56:34.684Z,21.00
2023-05-07T05:57:34.640Z,22.80
2023-05-07T05:58:34.628Z,25.20
2023-05-07T05:59:34.549Z,22.30
2023-05-07T06:00:34.527Z,22.60
2023-05-07T06:01:34.796Z,21.20
2023-05-07T06:02:34.530Z,22.10
2023-05-07T06:03:34.574Z,21.30
2023-05-07T06:04:34.451Z,22.60
2023-05-07T06:05:34.383Z,20.50
2023-05-07T06:06:34.406Z,20.30
2023-05-07T06:07:34.303Z,20.70
2023-05-07T06:08:34.533Z,20.20
2023-05-07T06:09:34.372Z,19.40
2023-05-07T06:10:34.218Z,21.10
2023-05-07T06:11:34.195Z,20.70
2023-05-07T06:12:34.189Z,20.70
2023-05-07T06:13:34.192Z,21.40
2023-05-07T06:14:34.093Z,20.80
2023-05-07T06:15:34.086Z,20.50
2023-05-07T06:16:34.059Z,21.00
2023-05-07T06:17:34.013Z,21.80
2023-05-07T06:18:33.951Z,21.60
2023-05-07T06:19:34.035Z,20.60
2023-05-07T06:20:33.932Z,20.40
2023-05-07T06:21:33.875Z,19.90
2023-05-07T06:22:33.789Z,20.90
2023-05-07T06:23:33.783Z,19.30
2023-05-07T06:24:33.781Z,19.80
2023-05-07T06:25:33.730Z,20.60
2023-05-07T06:26:33.701Z,20.60
2023-05-07T06:27:33.658Z,20.00
2023-05-07T06:28:33.586Z,20.00
2023-05-07T06:29:33.562Z,20.60
2023-05-07T06:30:33.498Z,19.70
2023-05-07T06:31:33.582Z,18.90
2023-05-07T06:32:33.440Z,19.40
2023-05-07T06:33:35.377Z,19.70
2023-05-07T06:34:33.406Z,18.70
2023-05-07T06:35:33.390Z,19.30
2023-05-07T06:36:33.244Z,21.40
2023-05-07T06:37:33.242Z,19.40
2023-05-07T06:38:33.168Z,19.50
2023-05-07T06:39:33.115Z,19.70
2023-05-07T06:40:33.114Z,20.30
2023-05-07T06:41:33.026Z,19.30
2023-05-07T06:42:33.051Z,20.40
2023-05-07T06:43:32.932Z,21.00
2023-05-07T06:44:32.895Z,19.50
2023-05-07T06:45:32.916Z,19.60
2023-05-07T06:46:32.941Z,20.00
2023-05-07T06:47:32.796Z,19.80
2023-05-07T06:48:32.707Z,19.70
2023-05-07T06:49:32.776Z,21.70
2023-05-07T06:50:32.634Z,20.50
2023-05-07T06:51:53.816Z,19.10
2023-05-07T06:52:32.515Z,20.40
2023-05-07T06:53:32.465Z,18.70
2023-05-07T06:54:32.446Z,18.90
2023-05-07T06:55:32.392Z,19.30
2023-05-07T06:56:32.399Z,19.90
2023-05-07T06:57:32.338Z,19.90
2023-05-07T06:58:32.290Z,21.10
2023-05-07T06:59:32.274Z,20.80
2023-05-07T07:00:32.174Z,20.00
2023-05-07T07:01:32.222Z,18.90
2023-05-07T07:02:32.146Z,19.60
2023-05-07T07:03:32.034Z,20.40
2023-05-07T07:04:32.048Z,20.00
2023-05-07T07:05:31.968Z,20.50
2023-05-07T07:06:31.932Z,18.30
2023-05-07T07:07:31.858Z,20.40
2023-05-07T07:08:31.802Z,18.10
2023-05-07T07:09:31.757Z,20.40
2023-05-07T07:10:31.723Z,19.90
2023-05-07T07:11:31.704Z,20.60
2023-05-07T07:12:31.596Z,19.00
2023-05-07T07:13:31.550Z,19.40
2023-05-07T07:14:31.511Z,18.30
2023-05-07T07:15:31.458Z,18.10
2023-05-07T07:16:31.521Z,17.70
2023-05-07T07:17:31.375Z,17.90
2023-05-07T07:18:31.310Z,18.60
2023-05-07T07:19:31.240Z,17.80
2023-05-07T07:20:31.191Z,17.30
2023-05-07T07:21:31.233Z,17.50
2023-05-07T07:22:31.072Z,16.60
2023-05-07T07:23:31.008Z,18.20
2023-05-07T07:24:30.955Z,17.80
2023-05-07T07:25:30.894Z,17.70
2023-05-07T07:26:30.845Z,16.90
2023-05-07T07:27:30.814Z,19.00
2023-05-07T07:28:30.804Z,17.90
2023-05-07T07:29:30.645Z,17.50
2023-05-07T07:30:30.573Z,16.60
2023-05-07T07:31:30.542Z,18.20
2023-05-07T07:32:30.466Z,18.30
2023-05-07T07:33:30.461Z,18.00
2023-05-07T07:34:30.357Z,18.00
2023-05-07T07:35:30.328Z,18.00
2023-05-07T07:36:42.477Z,17.00
2023-05-07T07:37:31.160Z,17.80
2023-05-07T07:38:30.177Z,18.20
2023-05-07T07:39:30.203Z,17.30
2023-05-07T07:40:30.003Z,18.00
2023-05-07T07:41:29.971Z,17.70
2023-05-07T07:42:29.947Z,16.70
2023-05-07T07:43:29.925Z,17.50
2023-05-07T07:44:29.782Z,16.90
2023-05-07T07:45:29.715Z,16.50
2023-05-07T07:46:29.689Z,16.00
2023-05-07T07:47:29.626Z,16.70
2023-05-07T07:48:29.600Z,16.60
2023-05-07T07:49:29.548Z,17.40
2023-05-07T07:50:43.488Z,17.00
2023-05-07T07:51:30.382Z,16.00
2023-05-07T07:52:29.337Z,16.30
2023-05-07T07:53:29.250Z,16.20
2023-05-07T07:54:29.164Z,16.80
2023-05-07T07:55:29.173Z,16.60
2023-05-07T07:56:29.033Z,17.40
2023-05-07T07:57:28.986Z,16.10
2023-05-07T07:58:28.945Z,17.00
2023-05-07T07:59:28.975Z,17.30
2023-05-07T08:00:28.884Z,17.50
2023-05-07T08:01:28.739Z,16.60
2023-05-07T08:02:28.876Z,16.60
2023-05-07T08:03:28.704Z,16.30
2023-05-07T08:04:28.616Z,16.20
2023-05-07T08:05:28.574Z,16.40
2023-05-07T08:06:28.485Z,16.30
2023-05-07T08:07:28.441Z,15.00
2023-05-07T08:08:28.324Z,16.10
2023-05-07T08:09:28.890Z,15.20
2023-05-07T08:10:28.251Z,15.40
2023-05-07T08:11:28.235Z,16.10
2023-05-07T08:12:28.071Z,16.00
2023-05-07T08:13:28.185Z,15.40
2023-05-07T08:14:28.048Z,15.20
2023-05-07T08:15:27.886Z,16.50
2023-05-07T08:16:27.830Z,15.90
2023-05-07T08:17:27.762Z,15.10
2023-05-07T08:18:27.682Z,17.80
2023-05-07T08:19:27.682Z,16.60
2023-05-07T08:20:27.567Z,16.10
2023-05-07T08:21:27.482Z,16.00
2023-05-07T08:22:27.463Z,14.90
2023-05-07T08:23:27.365Z,17.60
2023-05-07T08:24:27.392Z,15.60
2023-05-07T08:25:27.226Z,17.60
2023-05-07T08:26:27.159Z,15.00
2023-05-07T08:27:27.154Z,15.20
2023-05-07T08:28:27.034Z,16.90
2023-05-07T08:29:27.025Z,15.50
2023-05-07T08:30:26.929Z,14.50
2023-05-07T08:31:26.851Z,14.60
2023-05-07T08:32:26.887Z,15.50
2023-05-07T08:33:26.676Z,15.70
2023-05-07T08:34:26.614Z,14.90
2023-05-07T08:35:26.545Z,14.60
2023-05-07T08:36:26.472Z,15.00
2023-05-07T08:37:26.478Z,13.80
2023-05-07T08:38:27.348Z,14.50
2023-05-07T08:39:26.235Z,13.70
2023-05-07T08:40:26.165Z,15.80
2023-05-07T08:41:26.097Z,13.80
2023-05-07T08:42:26.092Z,14.80
2023-05-07T08:43:25.966Z,14.00
2023-05-07T08:44:25.868Z,14.10
2023-05-07T08:45:25.810Z,15.60
2023-05-07T08:46:25.948Z,14.50
2023-05-07T08:47:25.634Z,16.00
2023-05-07T08:48:25.575Z,16.10
2023-05-07T08:49:25.482Z,14.40
2023-05-07T08:50:25.411Z,14.60
2023-05-07T08:51:25.383Z,14.70
2023-05-07T08:52:25.226Z,14.80
2023-05-07T08:53:25.185Z,15.00
2023-05-07T08:54:25.078Z,15.50
2023-05-07T08:55:24.989Z,15.00
2023-05-07T08:56:24.891Z,14.80
2023-05-07T08:57:24.860Z,14.10
2023-05-07T08:58:24.705Z,14.90
2023-05-07T08:59:24.683Z,14.30
2023-05-07T09:00:24.561Z,14.80
2023-05-07T09:01:24.520Z,15.20
2023-05-07T09:02:24.710Z,14.10
2023-05-07T09:03:24.339Z,13.70
2023-05-07T09:04:24.198Z,14.80
2023-05-07T09:05:24.142Z,14.40
2023-05-07T09:06:24.018Z,13.40
2023-05-07T09:07:24.038Z,13.30
2023-05-07T09:08:23.891Z,14.10
2023-05-07T09:09:23.795Z,14.60
2023-05-07T09:10:23.685Z,14.50
2023-05-07T09:11:23.661Z,14.30
2023-05-07T09:12:23.526Z,13.10
2023-05-07T09:13:23.644Z,13.70
2023-05-07T09:14:23.481Z,13.90
2023-05-07T09:15:23.292Z,14.10
2023-05-07T09:16:23.267Z,14.50
2023-05-07T09:17:23.146Z,15.10
2023-05-07T09:18:23.095Z,15.00
2023-05-07T09:19:22.956Z,12.80
2023-05-07T09:20:22.934Z,12.50
2023-05-07T09:21:22.792Z,13.50
2023-05-07T09:22:22.725Z,14.00
2023-05-07T09:23:22.621Z,14.00
2023-05-07T09:24:22.523Z,13.30
2023-05-07T09:25:22.490Z,13.00
2023-05-07T09:26:22.356Z,12.90
2023-05-07T09:27:22.264Z,12.20
2023-05-07T09:28:22.241Z,11.60
2023-05-07T09:29:22.128Z,11.80
2023-05-07T09:30:22.009Z,12.10
2023-05-07T09:31:22.072Z,11.90
2023-05-07T09:32:23.965Z,12.20
2023-05-07T09:33:21.892Z,11.70
2023-05-07T09:34:21.663Z,11.70
2023-05-07T09:35:21.570Z,11.90
2023-05-07T09:36:21.512Z,12.40
2023-05-07T09:37:21.467Z,12.20
2023-05-07T09:38:21.375Z,14.90
2023-05-07T09:39:21.220Z,11.00
2023-05-07T09:40:21.140Z,11.30
2023-05-07T09:41:21.056Z,12.10
2023-05-07T09:42:21.012Z,12.20
2023-05-07T09:43:20.876Z,13.50
2023-05-07T09:44:20.803Z,13.50
2023-05-07T09:45:20.862Z,13.00
2023-05-07T09:46:20.756Z,13.10
2023-05-07T09:47:20.722Z,13.20
2023-05-07T09:48:20.444Z,13.50
2023-05-07T09:49:21.044Z,10.70
2023-05-07T09:50:20.282Z,12.50
2023-05-07T09:51:20.194Z,11.60
2023-05-07T09:52:20.089Z,11.90
2023-05-07T09:53:19.933Z,12.00
2023-05-07T09:54:19.895Z,11.00
2023-05-07T09:55:19.753Z,11.70
2023-05-07T09:56:19.695Z,11.80
2023-05-07T09:57:19.565Z,12.00
2023-05-07T09:58:19.479Z,11.50
2023-05-07T09:59:19.427Z,10.70
2023-05-07T10:00:19.271Z,10.70
2023-05-07T10:01:19.262Z,11.30
2023-05-07T10:02:19.098Z,11.10
2023-05-07T10:03:19.153Z,13.00
2023-05-07T10:04:18.968Z,11.30
2023-05-07T10:05:18.860Z,11.00
2023-05-07T10:06:18.714Z,11.20
2023-05-07T10:07:18.621Z,11.60
2023-05-07T10:08:18.590Z,11.70
2023-05-07T10:09:18.417Z,10.70
2023-05-07T10:10:18.340Z,11.40
2023-05-07T10:11:18.222Z,11.20
2023-05-07T10:12:18.142Z,10.90
2023-05-07T10:13:18.151Z,11.40
2023-05-07T10:14:18.001Z,11.40
2023-05-07T10:15:17.836Z,9.90
2023-05-07T10:16:17.767Z,9.80
2023-05-07T10:17:17.674Z,10.80
2023-05-07T10:18:17.835Z,11.20
2023-05-07T10:19:17.576Z,10.20
2023-05-07T10:20:17.362Z,10.10
2023-05-07T10:21:17.273Z,9.90
2023-05-07T10:22:17.175Z,11.10
2023-05-07T10:23:17.132Z,10.90
2023-05-07T10:24:16.986Z,11.10
2023-05-07T10:25:16.904Z,10.10
2023-05-07T10:26:16.770Z,12.50
2023-05-07T10:27:16.670Z,9.50
2023-05-07T10:28:16.648Z,11.10
2023-05-07T10:29:16.483Z,9.00
2023-05-07T10:30:16.402Z,9.40
2023-05-07T10:31:16.338Z,10.50
2023-05-07T10:32:16.284Z,9.50
2023-05-07T10:33:16.198Z,9.60
2023-05-07T10:34:15.998Z,10.80
2023-05-07T10:35:15.932Z,10.20
2023-05-07T10:36:15.789Z,10.50
2023-05-07T10:37:15.696Z,10.70
2023-05-07T10:38:15.670Z,10.80
2023-05-07T10:39:15.625Z,10.70
2023-05-07T10:40:15.394Z,11.40
2023-05-07T10:41:15.294Z,10.70
2023-05-07T10:42:15.190Z,10.90
2023-05-07T10:43:15.148Z,11.20
2023-05-07T10:44:14.985Z,10.80
2023-05-07T10:45:14.954Z,10.50
2023-05-07T10:46:14.855Z,10.20
2023-05-07T10:47:14.686Z,10.10
2023-05-07T10:48:28.684Z,11.20
2023-05-07T10:49:15.481Z,10.30
2023-05-07T10:50:14.447Z,9.90
2023-05-07T10:51:14.374Z,10.30
2023-05-07T10:52:14.193Z,11.80
2023-05-07T10:53:14.153Z,9.70
2023-05-07T10:54:14.018Z,10.70
2023-05-07T10:55:13.902Z,11.30
2023-05-07T10:56:13.848Z,9.90
2023-05-07T10:57:13.663Z,10.50
2023-05-07T10:58:20.039Z,11.60
2023-05-07T10:59:14.487Z,9.70
2023-05-07T11:00:13.410Z,11.50
2023-05-07T11:01:13.388Z,9.70
2023-05-07T11:02:13.175Z,9.60
2023-05-07T11:03:13.251Z,9.00
2023-05-07T11:04:13.074Z,10.20
2023-05-07T11:05:13.060Z,10.60
2023-05-07T11:06:12.769Z,9.20
2023-05-07T11:07:12.770Z,9.40
2023-05-07T11:08:12.536Z,9.80
2023-05-07T11:09:12.585Z,9.10
2023-05-07T11:10:13.392Z,9.70
2023-05-07T11:11:12.236Z,9.10
2023-05-07T11:12:12.292Z,8.90
2023-05-07T11:13:12.038Z,9.40
2023-05-07T11:14:12.034Z,8.50
2023-05-07T11:15:12.134Z,8.80
2023-05-07T11:16:11.780Z,9.30
2023-05-07T11:17:11.622Z,9.30
2023-05-07T11:18:11.557Z,9.40
2023-05-07T11:19:11.422Z,8.80
2023-05-07T11:20:11.369Z,8.10
2023-05-07T11:21:11.234Z,8.30
2023-05-07T11:22:11.106Z,8.50
2023-05-07T11:23:11.077Z,8.20
2023-05-07T11:24:10.919Z,8.60
2023-05-07T11:25:11.130Z,8.10
2023-05-07T11:26:10.683Z,7.80
2023-05-07T11:27:10.548Z,6.20
2023-05-07T11:28:10.475Z,7.40
2023-05-07T11:29:10.352Z,6.40
2023-05-07T11:30:10.294Z,6.20
2023-05-07T11:31:10.129Z,6.60
2023-05-07T11:32:10.133Z,6.60
2023-05-07T11:33:09.923Z,7.30
2023-05-07T11:34:09.748Z,7.50
2023-05-07T11:35:09.844Z,6.20
2023-05-07T11:36:09.513Z,6.90
2023-05-07T11:37:09.386Z,6.80
2023-05-07T11:38:09.276Z,8.10
2023-05-07T11:39:09.279Z,7.40
2023-05-07T11:40:09.138Z,7.80
2023-05-07T11:41:09.025Z,7.50
2023-05-07T11:42:08.875Z,6.40
2023-05-07T11:43:08.663Z,6.00
2023-05-07T11:44:09.530Z,6.80
2023-05-07T11:45:08.464Z,7.00
2023-05-07T11:46:08.351Z,6.80
2023-05-07T11:47:08.256Z,7.40
2023-05-07T11:48:08.143Z,8.30
2023-05-07T11:49:07.966Z,6.50
2023-05-07T11:50:07.820Z,6.50
2023-05-07T11:51:07.686Z,6.00
2023-05-07T11:52:07.555Z,7.20
2023-05-07T11:53:07.488Z,6.60
2023-05-07T11:54:07.311Z,7.80
2023-05-07T11:55:07.248Z,6.20
2023-05-07T11:56:07.075Z,6.50
2023-05-07T11:57:06.950Z,6.30
2023-05-07T11:58:08.196Z,8.70
2023-05-07T11:59:06.700Z,7.10
2023-05-07T12:00:06.624Z,6.30
2023-05-07T12:01:06.481Z,5.90
2023-05-07T12:02:06.380Z,6.70
2023-05-07T12:03:06.462Z,5.90
2023-05-07T12:04:06.130Z,6.10
2023-05-07T12:05:05.961Z,5.60
2023-05-07T12:06:05.848Z,5.60
2023-05-07T12:07:05.754Z,7.10
2023-05-07T12:08:05.674Z,8.50
2023-05-07T12:09:05.471Z,6.80
2023-05-07T12:10:05.435Z,6.50
2023-05-07T12:11:05.402Z,6.20
2023-05-07T12:12:05.124Z,7.00
2023-05-07T12:13:05.143Z,7.00
2023-05-07T12:15:04.803Z,6.60
2023-05-07T12:16:04.711Z,6.50
2023-05-07T12:17:04.570Z,6.80
2023-05-07T12:18:04.493Z,6.20
2023-05-07T12:19:04.262Z,6.20
2023-05-07T12:20:04.132Z,6.80
2023-05-07T12:21:04.044Z,6.50
2023-05-07T12:22:03.948Z,7.10
2023-05-07T12:23:03.765Z,7.10
2023-05-07T12:24:03.634Z,7.20
2023-05-07T12:25:03.625Z,6.90
2023-05-07T12:26:05.799Z,6.30
2023-05-07T12:27:03.377Z,6.70
2023-05-07T12:28:03.189Z,7.00
2023-05-07T12:29:03.039Z,7.70
2023-05-07T12:30:02.910Z,7.20
2023-05-07T12:31:02.821Z,6.60
2023-05-07T12:32:04.149Z,7.10
2023-05-07T12:33:02.587Z,7.30
2023-05-07T12:34:02.492Z,7.30
2023-05-07T12:35:02.354Z,6.80
2023-05-07T12:36:02.172Z,7.10
2023-05-07T12:37:02.115Z,7.20
2023-05-07T12:38:01.952Z,7.00
2023-05-07T12:39:01.868Z,6.30
2023-05-07T12:40:01.725Z,6.80
2023-05-07T12:41:01.602Z,7.40
2023-05-07T12:42:01.447Z,8.20
2023-05-07T12:43:01.441Z,6.90
2023-05-07T12:44:01.231Z,6.00
2023-05-07T12:45:01.070Z,7.10
2023-05-07T12:46:00.986Z,6.50
2023-05-07T12:47:00.856Z,6.80
2023-05-07T12:48:00.852Z,6.90
2023-05-07T12:49:00.654Z,6.30
2023-05-07T12:50:00.523Z,7.30
2023-05-07T12:51:00.417Z,7.90
2023-05-07T12:52:00.202Z,6.90
2023-05-07T12:53:00.169Z,7.50
2023-05-07T12:53:59.970Z,7.10
2023-05-07T12:54:59.849Z,6.70
2023-05-07T12:55:59.796Z,6.70
2023-05-07T12:56:59.611Z,7.80